createdAt,value
2018-12-12T00:00:35.101Z,30.09
2018-12-12T00:02:42.325Z,30.34
2018-12-12T00:04:49.270Z,30.86
2018-12-12T00:06:57.291Z,30.38
2018-12-12T00:09:04.630Z,31.23
2018-12-12T00:11:12.585Z,30.76
2018-12-12T00:13:22.836Z,30.75
2018-12-12T00:15:32.173Z,31.95
2018-12-12T00:17:39.743Z,32.19
2018-12-12T00:19:47.250Z,30.90
2018-12-12T00:21:54.223Z,31.15
2018-12-12T00:24:01.065Z,31.10
2018-12-12T00:26:07.822Z,30.94
2018-12-12T00:28:15.159Z,30.89
2018-12-12T00:30:22.474Z,30.33
2018-12-12T00:32:29.660Z,31.41
2018-12-12T00:34:36.522Z,30.89
2018-12-12T00:36:44.070Z,32.00
2018-12-12T00:38:51.095Z,31.41
2018-12-12T00:40:58.420Z,31.56
2018-12-12T00:43:05.188Z,30.76
2018-12-12T00:45:13.757Z,30.91
2018-12-12T00:47:20.897Z,30.72
2018-12-12T00:49:28.288Z,30.48
2018-12-12T00:51:35.437Z,31.06
2018-12-12T00:53:43.951Z,31.16
2018-12-12T00:55:51.177Z,31.50
2018-12-12T00:57:58.290Z,29.93
2018-12-12T01:00:09.366Z,31.05
2018-12-12T01:02:16.258Z,30.58
2018-12-12T01:04:23.595Z,31.20
2018-12-12T01:06:31.944Z,31.23
2018-12-12T01:08:39.022Z,31.31
2018-12-12T01:10:47.302Z,30.66
2018-12-12T01:12:55.103Z,31.61
2018-12-12T01:19:40.255Z,31.25
2018-12-12T01:26:16.864Z,31.22
2018-12-12T01:30:45.909Z,30.72
2018-12-12T01:37:41.792Z,31.03
2018-12-12T01:39:57.446Z,31.69
2018-12-12T01:42:12.414Z,31.73
2018-12-12T01:51:46.758Z,31.22
2018-12-12T02:21:02.476Z,32.49
2018-12-12T03:03:28.700Z,31.43
2018-12-12T03:15:33.921Z,32.24
2018-12-12T03:24:18.717Z,32.21
2018-12-12T03:31:06.163Z,31.23
2018-12-12T03:37:40.889Z,31.83
2018-12-12T03:44:18.783Z,30.79
2018-12-12T03:55:22.701Z,32.27
2018-12-12T03:59:44.878Z,32.58
2018-12-12T04:01:53.514Z,32.40
2018-12-12T04:04:00.288Z,32.99
2018-12-12T04:06:07.274Z,32.76
2018-12-12T04:08:14.340Z,32.12
2018-12-12T04:10:21.421Z,32.55
2018-12-12T04:12:28.839Z,32.77
2018-12-12T04:14:35.786Z,32.83
2018-12-12T04:16:42.930Z,32.49
2018-12-12T04:18:49.837Z,32.79
2018-12-12T04:20:57.050Z,31.94
2018-12-12T04:23:04.754Z,32.68
2018-12-12T04:25:12.121Z,33.11
2018-12-12T04:27:19.039Z,33.14
2018-12-12T04:29:26.685Z,32.89
2018-12-12T04:31:33.928Z,32.36
2018-12-12T04:33:41.272Z,32.63
2018-12-12T04:35:48.526Z,32.63
2018-12-12T04:37:55.397Z,32.57
2018-12-12T04:40:02.119Z,31.74
2018-12-12T04:42:09.434Z,31.81
2018-12-12T04:44:16.170Z,31.69
2018-12-12T04:46:22.976Z,32.03
2018-12-12T04:48:29.856Z,32.43
2018-12-12T04:50:37.073Z,32.68
2018-12-12T04:52:44.118Z,32.19
2018-12-12T04:54:50.902Z,31.92
2018-12-12T04:56:58.117Z,31.20
2018-12-12T04:59:05.219Z,30.34
2018-12-12T05:01:12.042Z,30.20
2018-12-12T05:03:19.924Z,31.42
2018-12-12T05:05:26.760Z,31.55
2018-12-12T05:07:33.730Z,31.34
2018-12-12T05:09:40.450Z,31.05
2018-12-12T05:11:47.221Z,31.18
2018-12-12T05:13:53.981Z,31.25
2018-12-12T05:16:00.984Z,31.46
2018-12-12T05:18:07.706Z,31.83
2018-12-12T05:20:14.646Z,31.52
2018-12-12T05:22:21.917Z,31.79
2018-12-12T05:24:28.863Z,31.93
2018-12-12T05:26:35.933Z,31.43
2018-12-12T05:28:42.716Z,31.71
2018-12-12T05:30:49.146Z,31.87
2018-12-12T05:32:56.106Z,31.63
2018-12-12T05:35:02.912Z,32.15
2018-12-12T05:37:09.944Z,32.31
2018-12-12T05:39:17.616Z,32.21
2018-12-12T05:41:24.721Z,32.43
2018-12-12T05:43:31.277Z,32.28
2018-12-12T05:45:38.576Z,32.05
2018-12-12T05:47:45.407Z,32.73
2018-12-12T05:49:52.072Z,32.37
2018-12-12T05:51:58.837Z,32.17
2018-12-12T05:54:06.195Z,32.80
2018-12-12T05:56:14.295Z,32.02
2018-12-12T05:58:21.170Z,30.71
2018-12-12T06:00:28.199Z,30.82
2018-12-12T06:02:35.144Z,30.57
2018-12-12T06:04:42.041Z,32.23
2018-12-12T06:06:48.895Z,31.50
2018-12-12T06:08:55.683Z,31.35
2018-12-12T06:11:02.369Z,31.67
2018-12-12T06:13:09.318Z,32.15
2018-12-12T06:15:16.172Z,31.99
2018-12-12T06:17:22.789Z,32.24
2018-12-12T06:19:30.080Z,32.63
2018-12-12T06:21:36.900Z,32.27
2018-12-12T06:23:43.926Z,31.72
2018-12-12T06:25:50.709Z,32.58
2018-12-12T06:27:57.469Z,32.63
2018-12-12T06:30:04.877Z,32.58
2018-12-12T06:32:11.637Z,32.34
2018-12-12T06:34:18.282Z,32.82
2018-12-12T06:36:25.197Z,32.37
2018-12-12T06:38:32.299Z,32.15
2018-12-12T06:40:39.328Z,32.17
2018-12-12T06:42:45.995Z,32.56
2018-12-12T06:44:53.131Z,32.00
2018-12-12T06:47:00.666Z,31.93
2018-12-12T06:49:07.647Z,31.15
2018-12-12T06:51:14.270Z,30.66
2018-12-12T06:53:20.820Z,31.06
2018-12-12T06:55:27.693Z,31.74
2018-12-12T06:57:34.787Z,31.10
2018-12-12T06:59:41.833Z,31.40
2018-12-12T07:01:48.846Z,31.43
2018-12-12T07:03:55.801Z,32.22
2018-12-12T07:06:02.450Z,32.50
2018-12-12T07:08:09.366Z,32.13
2018-12-12T07:10:16.444Z,31.71
2018-12-12T07:12:23.469Z,31.93
2018-12-12T07:14:30.445Z,32.12
2018-12-12T07:16:37.418Z,32.12
2018-12-12T07:18:44.788Z,32.77
2018-12-12T07:20:51.514Z,32.35
2018-12-12T07:22:58.333Z,32.16
2018-12-12T07:25:05.358Z,32.34
2018-12-12T07:27:12.157Z,33.14
2018-12-12T07:29:19.110Z,32.56
2018-12-12T07:31:25.786Z,32.85
2018-12-12T07:33:32.889Z,33.17
2018-12-12T07:35:39.713Z,32.06
2018-12-12T07:37:46.760Z,31.77
2018-12-12T07:39:54.459Z,30.72
2018-12-12T07:42:02.282Z,31.28
2018-12-12T07:44:09.125Z,30.84
2018-12-12T07:46:16.294Z,33.54
2018-12-12T07:48:23.274Z,31.52
2018-12-12T07:50:30.741Z,32.01
2018-12-12T07:52:37.538Z,31.76
2018-12-12T07:54:44.226Z,32.03
2018-12-12T07:56:51.421Z,32.09
2018-12-12T07:58:58.294Z,32.46
2018-12-12T08:01:05.346Z,32.19
2018-12-12T08:03:12.094Z,32.53
2018-12-12T08:05:19.005Z,32.30
2018-12-12T08:07:25.886Z,33.03
2018-12-12T08:09:33.013Z,33.00
2018-12-12T08:11:40.035Z,32.90
2018-12-12T08:13:46.758Z,32.70
2018-12-12T08:15:53.617Z,32.33
2018-12-12T08:18:00.462Z,32.29
2018-12-12T08:20:07.485Z,32.80
2018-12-12T08:22:14.135Z,32.50
2018-12-12T08:24:21.157Z,32.91
2018-12-12T08:26:28.322Z,32.86
2018-12-12T08:28:35.079Z,32.44
2018-12-12T08:30:41.853Z,33.49
2018-12-12T08:32:48.582Z,32.43
2018-12-12T08:34:55.263Z,31.88
2018-12-12T08:37:02.705Z,32.01
2018-12-12T08:39:10.290Z,32.13
2018-12-12T08:41:16.914Z,31.57
2018-12-12T08:43:23.625Z,31.36
2018-12-12T08:45:30.629Z,31.08
2018-12-12T08:47:38.063Z,31.11
2018-12-12T08:49:44.898Z,32.43
2018-12-12T08:51:51.847Z,32.48
2018-12-12T08:53:58.711Z,32.55
2018-12-12T08:56:06.078Z,31.90
2018-12-12T08:58:12.889Z,32.19
2018-12-12T09:00:19.867Z,32.97
2018-12-12T09:02:26.686Z,32.87
2018-12-12T09:04:33.457Z,32.16
2018-12-12T09:06:40.690Z,32.42
2018-12-12T09:08:48.227Z,32.11
2018-12-12T09:10:55.009Z,31.78
2018-12-12T09:13:01.727Z,31.61
2018-12-12T09:15:08.930Z,30.73
2018-12-12T09:17:15.860Z,31.40
2018-12-12T09:19:22.886Z,30.81
2018-12-12T09:21:30.424Z,30.35
2018-12-12T09:23:38.322Z,30.60
2018-12-12T09:25:45.192Z,30.29
2018-12-12T09:27:52.002Z,31.80
2018-12-12T09:29:59.106Z,32.84
2018-12-12T09:32:05.850Z,31.66
2018-12-12T09:34:12.745Z,31.57
2018-12-12T09:36:19.961Z,31.81
2018-12-12T09:38:27.121Z,32.07
2018-12-12T09:40:34.081Z,32.56
2018-12-12T09:42:40.615Z,32.05
2018-12-12T09:44:47.622Z,32.45
2018-12-12T09:46:54.854Z,32.31
2018-12-12T09:49:01.762Z,32.65
2018-12-12T09:51:08.631Z,32.08
2018-12-12T09:53:15.661Z,33.27
2018-12-12T09:55:22.390Z,32.51
2018-12-12T09:57:29.280Z,33.04
2018-12-12T09:59:36.011Z,32.80
2018-12-12T10:01:42.838Z,32.53
2018-12-12T10:03:53.174Z,31.58
2018-12-12T10:06:00.230Z,31.19
2018-12-12T10:08:07.062Z,31.42
2018-12-12T10:10:14.080Z,31.53
2018-12-12T10:12:21.087Z,31.59
2018-12-12T10:14:27.678Z,32.07
2018-12-12T10:16:34.502Z,32.48
2018-12-12T10:18:41.491Z,31.52
2018-12-12T10:20:48.375Z,31.84
2018-12-12T10:22:55.226Z,31.41
2018-12-12T10:25:02.139Z,30.98
2018-12-12T10:27:09.602Z,30.11
2018-12-12T10:29:17.033Z,30.98
2018-12-12T10:31:24.338Z,31.02
2018-12-12T10:33:37.439Z,30.79
2018-12-12T10:35:40.493Z,34.32
2018-12-12T10:37:47.510Z,32.03
2018-12-12T10:39:54.296Z,32.29
2018-12-12T10:42:01.045Z,32.98
2018-12-12T10:44:07.966Z,32.20
2018-12-12T10:46:14.735Z,32.75
2018-12-12T10:48:22.697Z,32.06
2018-12-12T10:50:29.861Z,32.48
2018-12-12T10:52:37.160Z,33.10
2018-12-12T10:54:43.973Z,33.07
2018-12-12T10:56:50.730Z,32.74
2018-12-12T10:58:57.649Z,32.60
2018-12-12T11:01:08.806Z,32.95
2018-12-12T11:03:52.656Z,33.13
2018-12-12T11:05:59.375Z,32.81
2018-12-12T11:08:06.410Z,33.51
2018-12-12T11:10:13.182Z,33.36
2018-12-12T11:12:20.124Z,33.39
2018-12-12T11:14:26.870Z,32.66
2018-12-12T11:16:33.812Z,32.47
2018-12-12T11:18:40.623Z,33.12
2018-12-12T11:20:47.325Z,32.71
2018-12-12T11:22:54.877Z,32.76
2018-12-12T11:25:01.929Z,32.47
2018-12-12T11:27:08.626Z,33.14
2018-12-12T11:29:15.326Z,31.82
2018-12-12T11:31:22.162Z,32.39
2018-12-12T11:33:28.874Z,32.02
2018-12-12T11:35:35.927Z,30.36
2018-12-12T11:37:43.474Z,32.12
2018-12-12T11:39:50.289Z,31.89
2018-12-12T11:41:57.158Z,30.70
2018-12-12T11:44:03.849Z,30.15
2018-12-12T11:46:11.149Z,30.03
2018-12-12T11:48:17.982Z,30.99
2018-12-12T11:50:25.039Z,32.26
2018-12-12T11:52:31.757Z,31.69
2018-12-12T11:54:38.742Z,31.56
2018-12-12T11:56:45.634Z,31.95
2018-12-12T11:58:52.669Z,32.45
2018-12-12T12:01:00.123Z,32.13
2018-12-12T12:03:06.377Z,32.33
2018-12-12T12:05:13.318Z,32.93
2018-12-12T12:07:20.225Z,32.43
2018-12-12T12:09:27.270Z,33.55
2018-12-12T12:11:33.940Z,32.52
2018-12-12T12:13:40.586Z,32.60
2018-12-12T12:15:47.454Z,33.17
2018-12-12T12:17:54.371Z,33.06
2018-12-12T12:20:01.138Z,33.10
2018-12-12T12:22:07.906Z,32.93
2018-12-12T12:24:14.610Z,32.60
2018-12-12T12:26:21.971Z,32.85
2018-12-12T12:28:28.917Z,32.98
2018-12-12T12:30:35.895Z,32.57
2018-12-12T12:32:42.737Z,32.47
2018-12-12T12:34:49.791Z,31.87
2018-12-12T12:36:57.694Z,32.56
2018-12-12T12:39:05.918Z,31.80
2018-12-12T12:41:13.481Z,31.24
2018-12-12T12:43:20.436Z,31.71
2018-12-12T12:45:29.179Z,31.79
2018-12-12T12:47:36.152Z,31.51
2018-12-12T12:49:43.053Z,30.41
2018-12-12T12:51:49.775Z,30.71
2018-12-12T12:53:57.327Z,30.51
2018-12-12T12:56:04.272Z,30.62
2018-12-12T12:58:11.070Z,30.15
2018-12-12T13:00:17.833Z,30.09
2018-12-12T13:02:25.390Z,29.86
2018-12-12T13:04:32.579Z,31.05
2018-12-12T13:06:39.341Z,29.90
2018-12-12T13:08:46.276Z,29.64
2018-12-12T13:10:53.101Z,31.11
2018-12-12T13:13:00.334Z,30.30
2018-12-12T13:15:07.666Z,29.04
2018-12-12T13:17:15.103Z,29.46
2018-12-12T13:19:21.953Z,28.93
2018-12-12T13:21:28.693Z,29.60
2018-12-12T13:23:35.630Z,30.31
2018-12-12T13:25:42.966Z,31.45
2018-12-12T13:27:49.903Z,31.59
2018-12-12T13:29:57.480Z,30.19
2018-12-12T13:32:04.341Z,30.87
2018-12-12T13:34:16.231Z,32.52
2018-12-12T13:36:20.270Z,31.95
2018-12-12T13:38:27.286Z,33.26
2018-12-12T13:40:33.942Z,32.27
2018-12-12T13:42:41.002Z,33.07
2018-12-12T13:44:47.826Z,32.53
2018-12-12T13:46:54.705Z,32.39
2018-12-12T13:49:01.673Z,33.13
2018-12-12T13:51:08.619Z,33.35
2018-12-12T13:53:15.601Z,32.71
2018-12-12T13:55:22.476Z,33.11
2018-12-12T13:57:29.146Z,33.14
2018-12-12T13:59:36.201Z,32.80
2018-12-12T14:01:43.185Z,32.02
2018-12-12T14:03:50.029Z,32.64
2018-12-12T14:05:56.994Z,32.81
2018-12-12T14:08:03.727Z,31.47
2018-12-12T14:10:10.341Z,32.79
2018-12-12T14:12:17.658Z,30.79
2018-12-12T14:14:24.287Z,30.86
2018-12-12T14:16:31.084Z,30.85
2018-12-12T14:18:37.964Z,33.10
2018-12-12T14:20:44.707Z,30.17
2018-12-12T14:22:51.553Z,31.11
2018-12-12T14:24:58.493Z,30.42
2018-12-12T14:27:05.261Z,29.85
2018-12-12T14:29:12.401Z,31.78
2018-12-12T14:31:19.078Z,31.86
2018-12-12T14:33:25.925Z,32.27
2018-12-12T14:35:32.783Z,32.31
2018-12-12T14:37:39.496Z,33.08
2018-12-12T14:39:46.452Z,32.50
2018-12-12T14:41:53.654Z,33.60
2018-12-12T14:44:00.375Z,33.32
2018-12-12T14:46:07.283Z,33.04
2018-12-12T14:48:14.499Z,33.36
2018-12-12T14:50:21.435Z,33.74
2018-12-12T14:52:28.224Z,33.62
2018-12-12T14:54:35.260Z,33.23
2018-12-12T14:56:42.604Z,33.27
2018-12-12T14:58:49.671Z,33.99
2018-12-12T15:00:56.490Z,34.05
2018-12-12T15:03:03.659Z,33.49
2018-12-12T15:05:10.543Z,34.25
2018-12-12T15:07:17.554Z,34.03
2018-12-12T15:09:24.514Z,33.83
2018-12-12T15:11:31.394Z,33.59
2018-12-12T15:13:38.193Z,33.38
2018-12-12T15:15:44.871Z,33.62
2018-12-12T15:17:51.754Z,33.84
2018-12-12T15:19:58.610Z,33.55
2018-12-12T15:22:05.525Z,33.80
2018-12-12T15:24:12.182Z,33.75
2018-12-12T15:26:19.038Z,34.19
2018-12-12T15:28:26.142Z,34.48
2018-12-12T15:30:33.445Z,34.53
2018-12-12T15:32:40.516Z,34.45
2018-12-12T15:34:47.447Z,33.94
2018-12-12T15:36:54.102Z,33.75
2018-12-12T15:39:00.887Z,34.11
2018-12-12T15:41:07.732Z,33.96
2018-12-12T15:43:14.630Z,33.82
2018-12-12T15:45:21.505Z,34.22
2018-12-12T15:47:28.406Z,34.39
2018-12-12T15:49:35.255Z,33.83
2018-12-12T15:51:42.055Z,34.44
2018-12-12T15:53:48.861Z,33.92
2018-12-12T15:55:55.544Z,34.13
2018-12-12T15:59:06.779Z,33.64
2018-12-12T16:01:13.768Z,32.24
2018-12-12T16:03:20.750Z,32.75
2018-12-12T16:05:27.863Z,32.54
2018-12-12T16:07:34.685Z,32.66
2018-12-12T16:09:42.522Z,32.44
2018-12-12T16:11:49.386Z,31.87
2018-12-12T16:13:56.167Z,32.04
2018-12-12T16:16:03.861Z,32.13
2018-12-12T16:18:10.628Z,31.78
2018-12-12T16:20:17.345Z,31.94
2018-12-12T16:22:24.331Z,31.70
2018-12-12T16:24:31.131Z,31.51
2018-12-12T16:26:37.789Z,32.06
2018-12-12T16:28:45.147Z,31.95
2018-12-12T16:30:51.767Z,31.42
2018-12-12T16:33:00.154Z,31.82
2018-12-12T16:35:07.606Z,31.89
2018-12-12T16:37:15.009Z,31.84
2018-12-12T16:39:22.126Z,31.52
2018-12-12T16:41:29.038Z,31.49
2018-12-12T16:43:35.827Z,30.55
2018-12-12T16:45:42.694Z,29.69
2018-12-12T16:47:49.573Z,29.74
2018-12-12T16:49:57.181Z,29.22
2018-12-12T16:52:04.154Z,29.43
2018-12-12T16:54:11.042Z,28.71
2018-12-12T16:56:18.050Z,28.84
2018-12-12T16:58:25.849Z,28.52
2018-12-12T17:00:33.179Z,28.66
2018-12-12T17:02:39.869Z,28.91
2018-12-12T17:04:46.747Z,29.98
2018-12-12T17:06:53.354Z,28.48
2018-12-12T17:09:00.259Z,29.30
2018-12-12T17:11:07.835Z,28.23
2018-12-12T17:13:15.250Z,28.51
2018-12-12T17:15:22.119Z,28.84
2018-12-12T17:17:28.729Z,29.83
2018-12-12T17:19:35.495Z,29.37
2018-12-12T17:21:42.805Z,29.90
2018-12-12T17:23:49.447Z,29.68
2018-12-12T17:25:56.353Z,30.42
2018-12-12T17:28:03.221Z,30.16
2018-12-12T17:30:10.511Z,30.34
2018-12-12T17:32:17.223Z,30.15
2018-12-12T17:34:24.939Z,30.14
2018-12-12T17:36:32.073Z,30.48
2018-12-12T17:38:39.025Z,30.57
2018-12-12T17:40:45.835Z,30.48
2018-12-12T17:42:52.691Z,30.18
2018-12-12T17:44:59.527Z,30.65
2018-12-12T17:47:06.458Z,30.83
2018-12-12T17:49:13.478Z,30.63
2018-12-12T17:51:20.286Z,30.60
2018-12-12T17:53:27.213Z,30.20
2018-12-12T17:55:33.989Z,30.13
2018-12-12T17:57:41.081Z,30.46
2018-12-12T17:59:47.858Z,30.61
2018-12-12T18:01:54.860Z,30.58
2018-12-12T18:04:01.712Z,30.37
2018-12-12T18:06:08.400Z,30.02
2018-12-12T18:08:15.092Z,30.43
2018-12-12T18:10:21.957Z,30.05
2018-12-12T18:12:29.056Z,30.26
2018-12-12T18:14:35.813Z,31.19
2018-12-12T18:16:42.945Z,31.56
2018-12-12T18:18:49.806Z,29.79
2018-12-12T18:20:56.699Z,29.38
2018-12-12T18:23:03.711Z,28.87
2018-12-12T18:25:10.521Z,28.94
2018-12-12T18:27:17.287Z,28.98
2018-12-12T18:29:25.030Z,28.45
2018-12-12T18:31:31.833Z,28.03
2018-12-12T18:33:39.070Z,28.60
2018-12-12T18:35:45.795Z,29.07
2018-12-12T18:37:52.838Z,28.40
2018-12-12T18:39:59.674Z,28.21
2018-12-12T18:42:06.385Z,27.73
2018-12-12T18:44:13.093Z,28.00
2018-12-12T18:46:20.501Z,27.77
2018-12-12T18:48:27.373Z,28.18
2018-12-12T18:50:35.089Z,28.02
2018-12-12T18:52:41.773Z,28.12
2018-12-12T18:54:48.985Z,28.24
2018-12-12T18:56:56.610Z,28.74
2018-12-12T18:59:03.361Z,28.59
2018-12-12T19:01:10.312Z,28.83
2018-12-12T19:03:17.065Z,29.61
2018-12-12T19:05:28.279Z,30.21
2018-12-12T19:07:33.041Z,29.93
2018-12-12T19:09:39.832Z,30.36
2018-12-12T19:11:47.083Z,30.12
2018-12-12T19:13:53.950Z,30.21
2018-12-12T19:16:00.610Z,30.42
2018-12-12T19:18:07.494Z,30.52
2018-12-12T19:20:14.058Z,30.78
2018-12-12T19:22:20.706Z,29.92
2018-12-12T19:24:27.606Z,30.38
2018-12-12T19:26:34.510Z,30.00
2018-12-12T19:28:41.395Z,30.16
2018-12-12T19:30:48.463Z,30.49
2018-12-12T19:32:55.870Z,30.54
2018-12-12T19:35:02.690Z,30.65
2018-12-12T19:37:09.434Z,30.60
2018-12-12T19:39:16.298Z,31.87
2018-12-12T19:41:23.412Z,30.24
2018-12-12T19:43:30.301Z,30.66
2018-12-12T19:45:37.042Z,30.73
2018-12-12T19:47:43.888Z,30.70
2018-12-12T19:49:50.941Z,30.74
2018-12-12T19:51:57.633Z,30.71
2018-12-12T19:54:04.333Z,30.43
2018-12-12T19:56:11.300Z,30.52
2018-12-12T19:58:18.309Z,30.46
2018-12-12T20:00:25.067Z,30.41
2018-12-12T20:02:31.758Z,30.55
2018-12-12T20:04:38.754Z,29.86
2018-12-12T20:06:45.517Z,30.13
2018-12-12T20:08:52.514Z,30.01
2018-12-12T20:10:59.524Z,30.40
2018-12-12T20:13:06.028Z,29.82
2018-12-12T20:15:16.578Z,30.47
2018-12-12T20:17:23.364Z,30.03
2018-12-12T20:19:30.189Z,29.80
2018-12-12T20:21:36.873Z,30.03
2018-12-12T20:23:43.581Z,29.92
2018-12-12T20:25:50.635Z,30.50
2018-12-12T20:27:57.433Z,30.52
2018-12-12T20:30:04.285Z,31.60
2018-12-12T20:32:11.125Z,30.51
2018-12-12T20:34:18.062Z,30.32
2018-12-12T20:36:24.656Z,29.60
2018-12-12T20:38:31.267Z,29.49
2018-12-12T20:40:38.234Z,29.28
2018-12-12T20:42:44.951Z,29.05
2018-12-12T20:44:51.784Z,28.81
2018-12-12T20:46:58.379Z,28.16
2018-12-12T20:49:06.330Z,28.87
2018-12-12T20:51:13.264Z,28.77
2018-12-12T20:53:19.902Z,28.61
2018-12-12T20:55:26.936Z,30.14
2018-12-12T20:57:34.403Z,30.37
2018-12-12T20:59:41.247Z,29.42
2018-12-12T21:01:48.265Z,28.67
2018-12-12T21:03:55.225Z,28.64
2018-12-12T21:06:03.086Z,29.30
2018-12-12T21:08:10.117Z,29.12
2018-12-12T21:10:17.004Z,29.53
2018-12-12T21:12:23.929Z,28.98
2018-12-12T21:14:30.910Z,29.41
2018-12-12T21:16:37.863Z,29.25
2018-12-12T21:18:44.711Z,29.98
2018-12-12T21:20:51.486Z,29.37
2018-12-12T21:22:58.145Z,29.80
2018-12-12T21:25:04.991Z,29.86
2018-12-12T21:27:12.147Z,29.79
2018-12-12T21:29:19.072Z,30.06
2018-12-12T21:31:25.698Z,29.96
2018-12-12T21:33:32.386Z,29.98
2018-12-12T21:35:39.173Z,29.92
2018-12-12T21:37:45.911Z,29.92
2018-12-12T21:39:52.629Z,30.18
2018-12-12T21:41:59.885Z,30.33
2018-12-12T21:44:06.835Z,30.12
2018-12-12T21:46:13.994Z,29.61
2018-12-12T21:48:20.975Z,29.55
2018-12-12T21:50:27.762Z,29.37
2018-12-12T21:52:34.505Z,29.43
2018-12-12T21:54:41.252Z,29.15
2018-12-12T21:56:48.486Z,29.07
2018-12-12T21:58:55.141Z,29.09
2018-12-12T22:01:02.402Z,28.24
2018-12-12T22:03:09.307Z,28.38
2018-12-12T22:05:16.488Z,27.95
2018-12-12T22:07:23.368Z,28.31
2018-12-12T22:09:30.547Z,28.18
2018-12-12T22:11:37.409Z,27.97
2018-12-12T22:13:44.277Z,28.03
2018-12-12T22:15:51.021Z,28.51
2018-12-12T22:17:57.937Z,27.27
2018-12-12T22:20:04.915Z,29.41
2018-12-12T22:22:11.848Z,27.87
2018-12-12T22:24:18.663Z,27.35
2018-12-12T22:26:25.564Z,28.33
2018-12-12T22:28:32.437Z,29.48
2018-12-12T22:30:39.339Z,29.10
2018-12-12T22:32:45.947Z,29.81
2018-12-12T22:34:52.596Z,29.80
2018-12-12T22:36:59.364Z,30.04
2018-12-12T22:39:08.108Z,29.73
2018-12-12T22:41:15.375Z,30.75
2018-12-12T22:43:22.070Z,30.97
2018-12-12T22:45:28.885Z,30.94
2018-12-12T22:47:35.610Z,30.31
2018-12-12T22:49:42.630Z,30.92
2018-12-12T22:51:49.440Z,30.19
2018-12-12T22:53:56.373Z,31.36
2018-12-12T22:56:03.366Z,31.27
2018-12-12T22:58:10.181Z,31.21
2018-12-12T23:00:22.566Z,31.13
2018-12-12T23:02:29.308Z,31.23
2018-12-12T23:04:36.071Z,31.21
2018-12-12T23:06:43.102Z,31.43
2018-12-12T23:08:50.022Z,30.90
2018-12-12T23:10:57.270Z,30.92
2018-12-12T23:13:03.896Z,31.69
2018-12-12T23:15:11.362Z,31.54
2018-12-12T23:17:18.457Z,31.24
2018-12-12T23:19:25.273Z,31.75
2018-12-12T23:21:32.345Z,32.28
2018-12-12T23:23:39.033Z,31.46
2018-12-12T23:25:45.726Z,31.45
2018-12-12T23:27:52.852Z,31.36
2018-12-12T23:29:59.532Z,32.08
2018-12-12T23:32:07.062Z,31.57
2018-12-12T23:34:13.924Z,31.49
2018-12-12T23:36:26.797Z,31.68
2018-12-12T23:38:30.229Z,32.47
2018-12-12T23:40:36.945Z,31.41
2018-12-12T23:42:44.038Z,30.94
2018-12-12T23:44:51.606Z,31.08
2018-12-12T23:46:58.651Z,31.08
2018-12-12T23:49:05.455Z,30.72
2018-12-12T23:51:12.462Z,30.03
2018-12-12T23:53:19.612Z,30.22
2018-12-12T23:55:26.746Z,30.98
2018-12-12T23:57:33.313Z,30.03
2018-12-12T23:59:40.042Z,30.95
